createdAt,value
2019-03-19T00:03:31.619Z,14.9
2019-03-19T00:13:30.836Z,14.9
2019-03-19T00:23:30.053Z,14.8
2019-03-19T00:33:29.267Z,14.7
2019-03-19T00:43:28.485Z,14.6
2019-03-19T00:53:27.698Z,14.4
2019-03-19T01:03:26.914Z,14.3
2019-03-19T01:13:26.128Z,14.1
2019-03-19T01:23:25.345Z,13.8
2019-03-19T01:33:24.562Z,13.6
2019-03-19T01:43:23.777Z,13.4
2019-03-19T01:53:22.988Z,13.3
2019-03-19T02:03:22.205Z,13.1
2019-03-19T02:13:21.417Z,12.9
2019-03-19T02:23:20.634Z,12.8
2019-03-19T02:32:33.297Z,12.9
2019-03-19T02:42:32.480Z,12.9
2019-03-19T02:52:31.689Z,12.7
2019-03-19T03:02:30.903Z,12.6
2019-03-19T03:12:30.118Z,12.3
2019-03-19T03:22:29.333Z,12.1
2019-03-19T03:32:28.596Z,11.9
2019-03-19T03:42:27.886Z,11.7
2019-03-19T03:52:27.183Z,11.6
2019-03-19T04:02:26.484Z,11.6
2019-03-19T04:12:25.775Z,11.6
2019-03-19T04:22:25.073Z,11.5
2019-03-19T04:32:24.289Z,11.5
2019-03-19T04:42:23.501Z,11.4
2019-03-19T04:52:22.712Z,11.1
2019-03-19T05:02:21.925Z,10.4
2019-03-19T05:22:20.354Z,10.2
2019-03-19T05:32:19.568Z,11.7
2019-03-19T05:42:18.788Z,12.1
2019-03-19T05:52:18.002Z,12.4
2019-03-19T06:02:17.214Z,13.3
2019-03-19T06:12:16.432Z,14.2
2019-03-19T06:22:15.645Z,14.1
2019-03-19T06:32:14.867Z,14.8
2019-03-19T06:42:14.081Z,16.1
2019-03-19T06:52:13.289Z,17.5
2019-03-19T07:02:12.505Z,18.5
2019-03-19T07:12:11.722Z,19.4
2019-03-19T07:22:10.944Z,19.6
2019-03-19T07:32:10.154Z,20
2019-03-19T07:42:09.372Z,22.6
2019-03-19T07:52:08.641Z,23.8
2019-03-19T08:02:07.807Z,25.7
2019-03-19T08:12:07.026Z,26.8
2019-03-19T08:22:06.245Z,26.5
2019-03-19T08:32:05.457Z,26.3
2019-03-19T08:42:04.675Z,26.8
2019-03-19T08:52:03.895Z,26.1
2019-03-19T09:02:03.111Z,26
2019-03-19T09:12:02.330Z,25.9
2019-03-19T09:22:01.546Z,26.6
2019-03-19T09:32:00.773Z,26.8
2019-03-19T09:41:59.981Z,26.3
2019-03-19T09:51:59.247Z,26
2019-03-19T10:01:58.640Z,25.9
2019-03-19T10:11:57.641Z,26.5
2019-03-19T10:21:58.077Z,26.9
2019-03-19T10:31:56.068Z,26.4
2019-03-19T15:03:25.899Z,17.6
2019-03-19T15:13:25.098Z,17.3
2019-03-19T15:23:24.312Z,17.1
2019-03-19T15:33:23.527Z,17.1
2019-03-19T15:43:22.748Z,17.2
2019-03-19T15:53:21.966Z,17.4
2019-03-19T16:03:21.216Z,17.4
2019-03-19T16:13:20.515Z,17.4
2019-03-19T16:23:19.823Z,16.9
2019-03-19T16:33:19.122Z,16.3
2019-03-19T16:43:18.429Z,16.4
2019-03-19T16:53:17.724Z,16.4
2019-03-19T17:03:16.941Z,16.3
2019-03-19T17:13:16.169Z,16.3
2019-03-19T17:23:15.379Z,16.1
2019-03-19T17:33:14.597Z,16.1
2019-03-19T17:43:13.815Z,15.9
2019-03-19T17:53:13.034Z,15.8
2019-03-19T18:03:12.256Z,15.7
2019-03-19T18:13:11.472Z,15.7
2019-03-19T18:23:10.687Z,15.6
2019-03-19T18:33:09.905Z,15.5
2019-03-19T18:43:09.123Z,15.4
2019-03-19T18:53:08.342Z,15.3
2019-03-19T19:03:07.567Z,15.2
2019-03-19T19:13:06.797Z,15.1
2019-03-19T19:23:06.044Z,14.9
2019-03-19T19:33:05.239Z,14.8
2019-03-19T19:43:04.467Z,14.6
2019-03-19T19:53:03.691Z,14.6
2019-03-19T20:03:11.693Z,14.4
2019-03-19T20:13:02.136Z,14.3
2019-03-19T20:23:01.354Z,14.3
2019-03-19T20:33:00.574Z,14.2
2019-03-19T20:42:59.794Z,14.1
2019-03-19T20:52:59.014Z,14.1
2019-03-19T21:02:58.236Z,13.9
2019-03-19T21:13:09.258Z,13.8
2019-03-19T21:23:08.477Z,13.8
2019-03-19T21:33:07.695Z,13.6
2019-03-19T21:43:06.912Z,13.6
2019-03-19T21:53:06.130Z,13.4
2019-03-19T22:03:05.351Z,13.4
2019-03-19T22:13:04.606Z,13.3
2019-03-19T22:23:03.909Z,13.3
2019-03-19T22:33:03.211Z,13.2
2019-03-19T22:43:02.514Z,13.1
2019-03-19T22:53:01.814Z,13.1
2019-03-19T23:03:01.121Z,13
2019-03-19T23:13:00.337Z,12.9
2019-03-19T23:22:59.557Z,12.9
2019-03-19T23:32:58.775Z,12.8
2019-03-19T23:42:57.986Z,12.8
2019-03-19T23:52:57.204Z,12.8
